Time;durP1;ratioP1;P1;durP2;ratioP2;P2;SDS_P1;SDS_P2;PMS_P1;PMS_P2;Temp;Humidity;BMP_temperature;BMP_pressure;BME280_temperature;BME280_humidity;BME280_pressure;Samples;Min_cycle;Max_cycle;Signal;HPM_P1;HPM_P2
2024/01/13 17:59:49;;;;;;;0.00;0.00;;;21.90;71.70;;;;;;5100501;27;20194;-61
2024/01/13 18:02:18;;;;;;;0.00;0.00;;;21.80;73.10;;;;;;5078521;27;20117;-66
2024/01/13 18:22:04;;;;;;;0.13;0.13;;;16.80;64.80;;;;;;5123555;27;20532;-80
2024/01/13 18:24:31;;;;;;;0.10;0.10;;;11.30;78.20;;;;;;5088756;27;20122;-79
2024/01/13 18:26:58;;;;;;;0.10;0.10;;;8.10;90.90;;;;;;5082107;28;20159;-79
2024/01/13 18:29:26;;;;;;;0.10;0.10;;;6.80;98.80;;;;;;5049697;28;20123;-79
2024/01/13 18:31:53;;;;;;;0.20;0.20;;;6.20;99.90;;;;;;5072340;28;20167;-79
2024/01/13 18:34:21;;;;;;;0.10;0.10;;;6.00;99.90;;;;;;5079688;28;20105;-79
2024/01/13 18:38:01;;;;;;;0.10;0.10;;;5.70;99.90;;;;;;5119373;27;21132;-79
2024/01/13 18:40:29;;;;;;;0.20;0.20;;;5.60;99.90;;;;;;5067170;28;20120;-80
2024/01/13 18:42:56;;;;;;;0.10;0.10;;;5.50;99.90;;;;;;5087634;28;21136;-79
2024/01/13 18:45:23;;;;;;;0.10;0.10;;;5.50;99.90;;;;;;5108537;27;20124;-80
2024/01/13 18:47:51;;;;;;;0.10;0.10;;;5.50;99.90;;;;;;5083762;28;20120;-80
2024/01/13 18:50:18;;;;;;;0.10;0.10;;;5.50;99.90;;;;;;5082379;27;20112;-80
2024/01/13 18:52:45;;;;;;;0.10;0.10;;;5.50;99.90;;;;;;5100338;27;20120;-79
2024/01/13 18:55:13;;;;;;;0.10;0.10;;;5.50;99.90;;;;;;5107265;27;20580;-78
2024/01/13 18:57:40;;;;;;;0.10;0.10;;;5.60;99.90;;;;;;5085074;28;20638;-80
2024/01/13 19:00:26;;;;;;;0.20;0.20;;;5.50;99.90;;;;;;5032714;27;20119;-80
2024/01/13 19:02:53;;;;;;;0.20;0.20;;;5.40;99.90;;;;;;5064618;28;20186;-79
2024/01/13 19:05:20;;;;;;;0.20;0.20;;;5.50;99.90;;;;;;5119915;27;20186;-79
2024/01/13 19:07:50;;;;;;;0.20;0.20;;;5.60;99.90;;;;;;5081909;28;20211;-80
2024/01/13 19:10:17;;;;;;;0.10;0.10;;;5.50;99.90;;;;;;5098871;27;20125;-80
2024/01/13 19:12:44;;;;;;;0.20;0.20;;;5.50;99.90;;;;;;5062781;28;20254;-79
2024/01/13 19:15:11;;;;;;;0.20;0.20;;;5.30;99.90;;;;;;5090333;28;20676;-79
2024/01/13 19:17:40;;;;;;;0.10;0.10;;;5.30;99.90;;;;;;5064461;28;20572;-79
2024/01/13 19:20:08;;;;;;;0.10;0.10;;;5.30;99.90;;;;;;5098026;27;20594;-79
2024/01/13 19:22:35;;;;;;;0.10;0.10;;;5.30;99.90;;;;;;5092788;28;20560;-80
2024/01/13 19:25:03;;;;;;;0.10;0.10;;;5.20;99.90;;;;;;5106108;27;20163;-79
2024/01/13 19:27:30;;;;;;;0.10;0.10;;;5.20;99.90;;;;;;5033449;28;20116;-79
2024/01/13 19:29:57;;;;;;;0.10;0.10;;;5.20;99.90;;;;;;5106336;27;20116;-80
2024/01/13 19:32:26;;;;;;;0.10;0.10;;;5.10;99.90;;;;;;5071499;28;20124;-78
2024/01/13 19:34:54;;;;;;;0.20;0.20;;;5.10;99.90;;;;;;5101814;27;20535;-80
2024/01/13 19:37:22;;;;;;;0.10;0.10;;;5.10;99.90;;;;;;5069674;28;20120;-80
2024/01/13 19:39:51;;;;;;;0.15;0.15;;;5.10;99.90;;;;;;5057384;28;20117;-80
2024/01/13 19:42:19;;;;;;;0.20;0.20;;;5.10;99.90;;;;;;5073660;28;20123;-80
2024/01/13 19:44:47;;;;;;;0.10;0.10;;;5.10;99.90;;;;;;5057916;28;20109;-80
2024/01/13 19:47:16;;;;;;;0.20;0.20;;;5.00;99.90;;;;;;5087228;27;20151;-79
2024/01/13 19:49:45;;;;;;;0.10;0.10;;;5.00;99.90;;;;;;5074244;28;20308;-79
2024/01/13 19:52:13;;;;;;;0.10;0.10;;;4.90;99.90;;;;;;5079431;28;20151;-79
2024/01/13 19:54:44;;;;;;;0.20;0.20;;;4.70;99.90;;;;;;5074388;28;20224;-79
2024/01/13 19:57:12;;;;;;;0.20;0.20;;;4.80;99.90;;;;;;5063748;28;20298;-79
2024/01/13 19:59:41;;;;;;;0.13;0.13;;;4.70;99.90;;;;;;5092620;27;20119;-80
2024/01/13 20:02:09;;;;;;;0.20;0.20;;;4.70;99.90;;;;;;5061008;28;20116;-80
2024/01/13 20:04:36;;;;;;;0.10;0.10;;;4.70;99.90;;;;;;5076632;28;20115;-80
2024/01/13 20:07:06;;;;;;;0.20;0.20;;;4.90;99.90;;;;;;5051937;28;20646;-80
2024/01/13 20:09:34;;;;;;;0.20;0.20;;;5.00;99.90;;;;;;5070850;28;20145;-79
2024/01/13 20:12:01;;;;;;;0.10;0.10;;;5.00;99.90;;;;;;5072997;27;20124;-80
2024/01/13 20:14:29;;;;;;;0.20;0.20;;;5.10;99.90;;;;;;5055231;28;21162;-80
2024/01/13 20:16:57;;;;;;;0.20;0.20;;;5.10;99.90;;;;;;5071180;28;20615;-79
2024/01/13 20:19:26;;;;;;;0.10;0.10;;;5.10;99.90;;;;;;5070698;28;20671;-79
2024/01/13 20:21:54;;;;;;;0.20;0.20;;;5.00;99.90;;;;;;5055683;28;20131;-80
2024/01/13 20:24:22;;;;;;;0.20;0.20;;;4.80;99.90;;;;;;5086106;27;20113;-79
2024/01/13 20:26:52;;;;;;;0.20;0.20;;;4.80;99.90;;;;;;5041892;28;20207;-80
2024/01/13 20:29:20;;;;;;;0.10;0.10;;;4.90;99.90;;;;;;5060870;28;20105;-79
2024/01/13 20:31:47;;;;;;;0.20;0.20;;;4.90;99.90;;;;;;5053809;28;20573;-79
2024/01/13 20:34:15;;;;;;;0.20;0.20;;;4.90;99.90;;;;;;5054973;28;20121;-80
2024/01/13 20:36:42;;;;;;;0.20;0.20;;;4.90;99.90;;;;;;5045577;28;20998;-79
2024/01/13 20:39:11;;;;;;;0.20;0.20;;;4.80;99.90;;;;;;5088398;27;20138;-79
2024/01/13 20:41:38;;;;;;;0.20;0.20;;;4.80;99.90;;;;;;5070652;28;20127;-80
2024/01/13 20:44:06;;;;;;;0.17;0.17;;;4.90;99.90;;;;;;5053467;28;20154;-79
2024/01/13 20:46:34;;;;;;;0.20;0.20;;;4.90;99.90;;;;;;5074490;28;20112;-79
2024/01/13 20:49:02;;;;;;;0.13;0.13;;;4.90;99.90;;;;;;5067540;28;21570;-79
2024/01/13 20:51:31;;;;;;;0.20;0.20;;;4.90;99.90;;;;;;5052946;28;20797;-80
2024/01/13 20:53:58;;;;;;;0.10;0.10;;;4.90;99.90;;;;;;5057967;28;20121;-79
2024/01/13 20:56:25;;;;;;;0.20;0.20;;;5.00;99.90;;;;;;5072710;28;20628;-80
2024/01/13 20:58:57;;;;;;;0.20;0.20;;;4.90;99.90;;;;;;5086853;28;20125;-80
2024/01/13 21:01:30;;;;;;;0.20;0.20;;;4.90;99.90;;;;;;5071804;28;20121;-79
2024/01/13 21:03:58;;;;;;;0.10;0.10;;;4.90;99.90;;;;;;5073840;28;20127;-79
2024/01/13 21:06:26;;;;;;;0.10;0.10;;;5.00;99.90;;;;;;5089286;28;20111;-79
2024/01/13 21:08:54;;;;;;;0.13;0.13;;;4.90;99.90;;;;;;5059532;28;20117;-79
2024/01/13 21:11:21;;;;;;;0.20;0.20;;;4.80;99.90;;;;;;5074424;28;20120;-78
2024/01/13 21:13:51;;;;;;;0.20;0.20;;;4.80;99.90;;;;;;5036894;28;22343;-79
2024/01/13 21:16:19;;;;;;;0.20;0.20;;;4.80;99.90;;;;;;5102963;27;20115;-80
2024/01/13 21:18:47;;;;;;;0.20;0.20;;;4.90;99.90;;;;;;5089260;27;20120;-80
2024/01/13 21:21:16;;;;;;;0.20;0.20;;;4.70;99.90;;;;;;5059341;28;20599;-80
2024/01/13 21:23:44;;;;;;;0.20;0.20;;;4.60;99.90;;;;;;5044625;28;20207;-80
2024/01/13 21:26:13;;;;;;;0.20;0.20;;;4.70;99.90;;;;;;5062231;28;20108;-81
2024/01/13 21:28:40;;;;;;;0.15;0.15;;;4.70;99.90;;;;;;5072517;28;20115;-81
2024/01/13 21:31:08;;;;;;;0.20;0.20;;;4.60;99.90;;;;;;5060765;28;20104;-80
2024/01/13 21:33:35;;;;;;;0.10;0.10;;;4.60;99.90;;;;;;5065819;28;20113;-82
2024/01/13 21:36:02;;;;;;;0.20;0.20;;;4.70;99.90;;;;;;5051183;28;20677;-80
2024/01/13 21:38:29;;;;;;;0.15;0.15;;;4.60;99.90;;;;;;5055257;28;20116;-82
2024/01/13 21:40:57;;;;;;;0.17;0.17;;;4.50;99.90;;;;;;5103758;27;20117;-81
2024/01/13 21:43:30;;;;;;;0.20;0.20;;;4.50;99.90;;;;;;5043543;28;20124;-81
2024/01/13 21:45:58;;;;;;;0.20;0.20;;;4.40;99.90;;;;;;5068630;28;20118;-81
2024/01/13 21:48:25;;;;;;;0.13;0.13;;;4.30;99.90;;;;;;5074386;28;20152;-82
2024/01/13 21:50:52;;;;;;;0.10;0.10;;;4.40;99.90;;;;;;5043291;28;21098;-81
2024/01/13 21:53:22;;;;;;;0.20;0.20;;;4.30;99.90;;;;;;5078511;28;20116;-81
2024/01/13 21:55:50;;;;;;;0.20;0.20;;;4.20;99.90;;;;;;5059748;28;20113;-81
2024/01/13 21:58:17;;;;;;;0.20;0.20;;;4.20;99.90;;;;;;5066857;28;20151;-81
2024/01/13 22:00:48;;;;;;;0.20;0.20;;;4.20;99.90;;;;;;5060113;28;20113;-80
2024/01/13 22:03:15;;;;;;;0.20;0.20;;;4.30;99.90;;;;;;5087836;27;20129;-81
2024/01/13 22:05:43;;;;;;;0.20;0.20;;;4.30;99.90;;;;;;5069403;28;25603;-80
2024/01/13 22:08:10;;;;;;;0.20;0.20;;;4.40;99.90;;;;;;5072107;28;20113;-80
2024/01/13 22:10:37;;;;;;;0.20;0.20;;;4.50;99.90;;;;;;5055889;28;20120;-80
2024/01/13 22:13:05;;;;;;;0.13;0.13;;;4.50;99.90;;;;;;5086016;27;20114;-81
2024/01/13 22:15:33;;;;;;;0.20;0.20;;;4.60;99.90;;;;;;5040939;28;21067;-82
2024/01/13 22:18:02;;;;;;;0.20;0.20;;;4.70;99.90;;;;;;5055280;28;20778;-79
2024/01/13 22:20:29;;;;;;;0.20;0.20;;;4.70;99.90;;;;;;5057165;28;20635;-79
2024/01/13 22:22:57;;;;;;;0.20;0.20;;;4.70;99.90;;;;;;5053642;28;22048;-81
2024/01/13 22:25:25;;;;;;;0.20;0.20;;;4.80;99.90;;;;;;5043175;28;20183;-80
2024/01/13 22:27:54;;;;;;;0.20;0.20;;;4.70;99.90;;;;;;5069873;28;20130;-80
2024/01/13 22:30:22;;;;;;;0.20;0.20;;;4.80;99.90;;;;;;5070646;28;20118;-79
2024/01/13 22:32:51;;;;;;;0.20;0.20;;;4.80;99.90;;;;;;5043116;28;20255;-79
2024/01/13 22:35:19;;;;;;;0.10;0.10;;;4.70;99.90;;;;;;5058544;28;20814;-79
2024/01/13 22:37:46;;;;;;;0.20;0.20;;;4.70;99.90;;;;;;5071655;28;20125;-79
2024/01/13 22:40:15;;;;;;;0.10;0.10;;;4.80;99.90;;;;;;5045812;28;20120;-79
2024/01/13 22:42:42;;;;;;;0.10;0.10;;;4.80;99.90;;;;;;5059762;28;20128;-79
2024/01/13 22:45:09;;;;;;;0.20;0.20;;;4.70;99.90;;;;;;5076949;28;21346;-80
2024/01/13 22:47:37;;;;;;;0.10;0.10;;;4.70;99.90;;;;;;5048135;28;20123;-80
2024/01/13 22:50:05;;;;;;;0.20;0.20;;;4.70;99.90;;;;;;5053658;28;20145;-79
2024/01/13 22:52:32;;;;;;;0.10;0.10;;;4.70;99.90;;;;;;5089853;28;20117;-79
2024/01/13 22:55:00;;;;;;;0.10;0.10;;;4.60;99.90;;;;;;5098361;27;20118;-79
2024/01/13 22:57:28;;;;;;;0.10;0.10;;;4.50;99.90;;;;;;5085719;27;20135;-79
2024/01/13 22:59:55;;;;;;;0.20;0.20;;;4.60;99.90;;;;;;5073398;28;20161;-79
2024/01/13 23:02:23;;;;;;;0.20;0.20;;;4.60;99.90;;;;;;5037411;28;20117;-80
2024/01/13 23:04:51;;;;;;;0.20;0.20;;;4.50;99.90;;;;;;5042042;28;20608;-80
2024/01/13 23:07:22;;;;;;;0.20;0.20;;;4.60;99.90;;;;;;5039211;28;20125;-79
2024/01/13 23:09:49;;;;;;;0.20;0.20;;;4.60;99.90;;;;;;5084736;27;27824;-80
2024/01/13 23:12:16;;;;;;;0.20;0.20;;;4.50;99.90;;;;;;5041308;28;20120;-80
2024/01/13 23:14:43;;;;;;;0.20;0.20;;;4.60;99.90;;;;;;5071355;28;20126;-79
2024/01/13 23:17:12;;;;;;;0.20;0.20;;;4.60;99.90;;;;;;5070221;27;20125;-79
2024/01/13 23:19:39;;;;;;;0.20;0.20;;;4.60;99.90;;;;;;5082727;27;20109;-80
2024/01/13 23:22:07;;;;;;;0.20;0.20;;;4.50;99.90;;;;;;5069639;28;20120;-79
2024/01/13 23:24:34;;;;;;;0.20;0.20;;;4.50;99.90;;;;;;5053373;28;21636;-80
2024/01/13 23:27:03;;;;;;;0.10;0.10;;;4.60;99.90;;;;;;5044556;28;20854;-80
2024/01/13 23:29:30;;;;;;;0.20;0.20;;;4.60;99.90;;;;;;5076172;28;20138;-81
2024/01/13 23:31:57;;;;;;;0.10;0.10;;;4.60;99.90;;;;;;5058767;28;20140;-80
2024/01/13 23:34:24;;;;;;;0.10;0.10;;;4.50;99.90;;;;;;5043987;28;20117;-79
2024/01/13 23:36:52;;;;;;;0.10;0.10;;;4.40;99.90;;;;;;5021658;28;20885;-80
2024/01/13 23:39:20;;;;;;;0.20;0.20;;;4.40;99.90;;;;;;5071609;28;20125;-80
2024/01/13 23:41:47;;;;;;;0.20;0.20;;;4.50;99.90;;;;;;5055069;28;20112;-80
2024/01/13 23:44:14;;;;;;;0.17;0.17;;;4.50;99.90;;;;;;5059082;28;20239;-81
2024/01/13 23:46:43;;;;;;;0.20;0.20;;;4.50;99.90;;;;;;5027156;28;20176;-81
2024/01/13 23:49:14;;;;;;;0.20;0.20;;;4.50;99.90;;;;;;5081822;27;20140;-81
2024/01/13 23:51:43;;;;;;;0.20;0.20;;;4.60;99.90;;;;;;5063113;28;20109;-80
2024/01/13 23:54:13;;;;;;;0.20;0.20;;;4.40;99.90;;;;;;5066262;28;20108;-81
2024/01/13 23:56:44;;;;;;;0.10;0.10;;;4.50;99.90;;;;;;5061711;28;20662;-81
2024/01/13 23:59:12;;;;;;;0.10;0.10;;;4.50;99.90;;;;;;5073495;28;20611;-82
